Barhom II — 5IM534 — position and weather

sailwx.info

Track history (hours):
 
Tides and Currents Weather Stations Pressure Air Temp Water Temp Dewpoint Dewpoint Depression Visibility Wind Speed Wind Dir Waves Ship Positions

Barhom II

Last reported at 2014-Aug-18 15:13 UTC. Time now 2014-Aug-22 15:43 UTC.
Position N 34°27' E 032°36'.

Length 83 m; draft 4.5 m.

Type: Cargo ship. MMSI: 677043400.

Date/timePositionNaut miles runAvg speedWind from/ knotsBaromVisibWave heightAir tempDewpointWater temp
2014-Aug-18 15:13N 34°27' E 032°36'6 9.1
2014-Aug-18 14:30N 34°26' E 032°44'9 8.8
2014-Aug-18 13:32N 34°24' E 032°54'9 9.3
2014-Aug-18 12:33N 34°29' E 033°02'9 9.1
2014-Aug-18 11:33N 34°38' E 033°06'3 3.4
2014-Aug-18 10:32N 34°41' E 033°04'0 0.0
2014-Aug-18 09:30N 34°41' E 033°04'0 0.1
2014-Aug-18 08:31N 34°41' E 033°04'0 0.1
2014-Aug-18 07:33N 34°41' E 033°04'0 0.0
2014-Aug-18 06:31N 34°41' E 033°04'0 0.1
2014-Aug-18 05:32N 34°41' E 033°04'0 0.1
2014-Aug-18 04:34N 34°41' E 033°04'9 8.7
2014-Aug-18 03:34N 34°36' E 033°13'1010.3
2014-Aug-18 02:34N 34°32' E 033°24'  
2014-Aug-15 15:21N 33°54' E 035°32'15 3.8
2014-Aug-15 11:33N 33°55' E 035°14'1110.5
2014-Aug-15 10:33N 33°56' E 035°01'2210.0
2014-Aug-15 08:23N 34°02' E 034°36'810.1
2014-Aug-15 07:33N 34°05' E 034°27'1010.2
2014-Aug-15 06:33N 34°08' E 034°15'1010.2
2014-Aug-15 05:31N 34°12' E 034°03'1010.1
2014-Aug-15 04:33N 34°14' E 033°52'1110.0
2014-Aug-15 03:29N 34°15' E 033°39'910.0
2014-Aug-15 02:33N 34°17' E 033°28'1210.0
2014-Aug-15 01:19N 34°19' E 033°13'810.0
2014-Aug-15 00:33N 34°19' E 033°04'10 9.9
2014-Aug-14 23:33N 34°21' E 032°52'10 9.8
2014-Aug-14 22:33N 34°22' E 032°40'1010.0
2014-Aug-14 21:33N 34°24' E 032°28'1010.3
2014-Aug-14 20:33N 34°26' E 032°16'1110.5
2014-Aug-14 19:34N 34°30' E 032°04'1110.7
2014-Aug-14 18:29N 34°34' E 031°51'1310.5
2014-Aug-14 17:16N 34°39' E 031°37'203 9.6
2014-Aug-13 20:04N 35°48' E 027°43'5810.0
2014-Aug-13 14:17N 36°07' E 026°35'6 7.8
2014-Aug-13 13:33N 36°08' E 026°28'1010.1
2014-Aug-13 12:33N 36°10' E 026°16'1510.2
2014-Aug-13 11:05N 36°10' E 025°58'510.0
2014-Aug-13 10:33N 36°10' E 025°51'1010.1
2014-Aug-13 09:33N 36°09' E 025°39'10 9.9
2014-Aug-13 08:33N 36°07' E 025°27'10 9.9
2014-Aug-13 07:33N 36°05' E 025°15'10 9.7
2014-Aug-13 06:33N 36°03' E 025°03'10 9.8
2014-Aug-13 05:33N 36°03' E 024°51'1110.5
2014-Aug-13 04:33N 36°04' E 024°38'1010.5
2014-Aug-13 03:33N 36°04' E 024°25'1010.2
2014-Aug-13 02:33N 36°04' E 024°13'1310.1
2014-Aug-13 01:16N 36°04' E 023°56'  
Track history (hours):
 
Tides and Currents Weather Stations Pressure Air Temp Water Temp Dewpoint Dewpoint Depression Visibility Wind Speed Wind Dir Waves Ship Positions

Barhom II

Last reported at 2014-Aug-18 15:13 UTC. Time now 2014-Aug-22 15:43 UTC.
Position N 34°27' E 032°36'.

Length 83 m; draft 4.5 m.

Type: Cargo ship. MMSI: 677043400.

Date/timePositionNaut miles runAvg speedWind from/ knotsBaromVisibWave heightAir tempDewpointWater temp
2014-Aug-18 15:13N 34°27' E 032°36'6 9.1
2014-Aug-18 14:30N 34°26' E 032°44'9 8.8
2014-Aug-18 13:32N 34°24' E 032°54'9 9.3
2014-Aug-18 12:33N 34°29' E 033°02'9 9.1
2014-Aug-18 11:33N 34°38' E 033°06'3 3.4
2014-Aug-18 10:32N 34°41' E 033°04'0 0.0
2014-Aug-18 09:30N 34°41' E 033°04'0 0.1
2014-Aug-18 08:31N 34°41' E 033°04'0 0.1
2014-Aug-18 07:33N 34°41' E 033°04'0 0.0
2014-Aug-18 06:31N 34°41' E 033°04'0 0.1
2014-Aug-18 05:32N 34°41' E 033°04'0 0.1
2014-Aug-18 04:34N 34°41' E 033°04'9 8.7
2014-Aug-18 03:34N 34°36' E 033°13'1010.3
2014-Aug-18 02:34N 34°32' E 033°24'  
2014-Aug-15 15:21N 33°54' E 035°32'15 3.8
2014-Aug-15 11:33N 33°55' E 035°14'1110.5
2014-Aug-15 10:33N 33°56' E 035°01'2210.0
2014-Aug-15 08:23N 34°02' E 034°36'810.1
2014-Aug-15 07:33N 34°05' E 034°27'1010.2
2014-Aug-15 06:33N 34°08' E 034°15'1010.2
2014-Aug-15 05:31N 34°12' E 034°03'1010.1
2014-Aug-15 04:33N 34°14' E 033°52'1110.0
2014-Aug-15 03:29N 34°15' E 033°39'910.0
2014-Aug-15 02:33N 34°17' E 033°28'1210.0
2014-Aug-15 01:19N 34°19' E 033°13'810.0
2014-Aug-15 00:33N 34°19' E 033°04'10 9.9
2014-Aug-14 23:33N 34°21' E 032°52'10 9.8
2014-Aug-14 22:33N 34°22' E 032°40'1010.0
2014-Aug-14 21:33N 34°24' E 032°28'1010.3
2014-Aug-14 20:33N 34°26' E 032°16'1110.5
2014-Aug-14 19:34N 34°30' E 032°04'1110.7
2014-Aug-14 18:29N 34°34' E 031°51'1310.5
2014-Aug-14 17:16N 34°39' E 031°37'203 9.6
2014-Aug-13 20:04N 35°48' E 027°43'5810.0
2014-Aug-13 14:17N 36°07' E 026°35'6 7.8
2014-Aug-13 13:33N 36°08' E 026°28'1010.1
2014-Aug-13 12:33N 36°10' E 026°16'1510.2
2014-Aug-13 11:05N 36°10' E 025°58'510.0
2014-Aug-13 10:33N 36°10' E 025°51'1010.1
2014-Aug-13 09:33N 36°09' E 025°39'10 9.9
2014-Aug-13 08:33N 36°07' E 025°27'10 9.9
2014-Aug-13 07:33N 36°05' E 025°15'10 9.7
2014-Aug-13 06:33N 36°03' E 025°03'10 9.8
2014-Aug-13 05:33N 36°03' E 024°51'1110.5
2014-Aug-13 04:33N 36°04' E 024°38'1010.5
2014-Aug-13 03:33N 36°04' E 024°25'1010.2
2014-Aug-13 02:33N 36°04' E 024°13'1310.1
2014-Aug-13 01:16N 36°04' E 023°56'  

Dump ship's entire track history